Time;durP1;ratioP1;P1;durP2;ratioP2;P2;SDS_P1;SDS_P2;PMS_P1;PMS_P2;Temp;Humidity;BMP_temperature;BMP_pressure;BME280_temperature;BME280_humidity;BME280_pressure;Samples;Min_cycle;Max_cycle;Signal;HPM_P1;HPM_P2
2021/12/12 00:00:12;;;;;;;21.45;14.50;;;1.20;99.90;;;;;;5035193;28;20033;-72
2021/12/12 00:02:55;;;;;;;26.52;17.55;;;1.20;99.90;;;;;;5036163;28;20575;-71
2021/12/12 00:05:32;;;;;;;26.20;16.85;;;1.20;99.90;;;;;;5035879;28;20052;-72
2021/12/12 00:08:00;;;;;;;25.20;16.92;;;1.20;99.90;;;;;;5036614;28;20382;-73
2021/12/12 00:10:32;;;;;;;24.20;16.58;;;1.20;99.90;;;;;;5035628;28;20122;-73
2021/12/12 00:13:06;;;;;;;33.05;19.75;;;1.20;99.90;;;;;;5038546;28;20044;-72
2021/12/12 00:15:33;;;;;;;25.88;18.23;;;1.20;99.90;;;;;;5039041;28;20063;-72
2021/12/12 00:18:00;;;;;;;26.02;18.23;;;1.20;99.90;;;;;;5051326;28;20688;-72
2021/12/12 00:20:30;;;;;;;29.08;18.33;;;1.20;99.90;;;;;;5039035;28;20045;-73
2021/12/12 00:22:59;;;;;;;25.92;17.38;;;1.20;99.90;;;;;;5039485;28;20099;-73
2021/12/12 00:25:35;;;;;;;26.73;17.95;;;1.20;99.90;;;;;;5039278;28;20249;-73
2021/12/12 00:28:02;;;;;;;25.15;18.40;;;1.20;99.90;;;;;;5039430;28;20127;-73
2021/12/12 00:30:29;;;;;;;27.25;19.15;;;1.20;99.90;;;;;;5039072;28;20106;-72
2021/12/12 00:32:56;;;;;;;;;;;1.20;99.90;;;;;;5038644;28;20193;-72
2021/12/12 00:35:23;;;;;;;24.40;17.13;;;1.20;99.90;;;;;;5039557;28;20289;-73
2021/12/12 00:37:58;;;;;;;26.33;18.60;;;1.20;99.90;;;;;;5040201;28;20052;-73
2021/12/12 00:40:46;;;;;;;27.00;19.40;;;1.20;99.90;;;;;;5038814;28;20041;-72
2021/12/12 00:43:20;;;;;;;24.30;17.45;;;1.10;99.90;;;;;;5039438;28;20041;-73
2021/12/12 00:45:48;;;;;;;29.83;19.95;;;1.10;99.90;;;;;;5039199;28;20045;-73
2021/12/12 00:48:15;;;;;;;30.58;19.30;;;1.10;99.90;;;;;;5038929;28;20130;-72
2021/12/12 00:50:44;;;;;;;30.77;19.42;;;1.10;99.90;;;;;;5039134;28;20090;-72
2021/12/12 00:53:13;;;;;;;27.55;18.73;;;1.10;99.90;;;;;;5039534;28;20053;-73
2021/12/12 00:55:42;;;;;;;34.85;19.58;;;1.10;99.90;;;;;;5038784;28;20048;-73
2021/12/12 00:58:12;;;;;;;31.67;20.77;;;1.10;99.90;;;;;;5039156;28;20083;-73
2021/12/12 01:00:51;;;;;;;31.42;19.10;;;1.10;99.90;;;;;;5037866;28;20361;-73
2021/12/12 01:03:26;;;;;;;27.92;18.40;;;1.10;99.90;;;;;;5039131;28;20048;-73
2021/12/12 01:05:55;;;;;;;27.77;19.60;;;1.10;99.90;;;;;;5038326;28;20107;-73
2021/12/12 01:08:23;;;;;;;33.35;21.65;;;1.10;99.90;;;;;;5039346;28;20056;-73
2021/12/12 01:11:01;;;;;;;33.95;20.98;;;1.10;99.90;;;;;;5039091;28;20107;-73
2021/12/12 01:13:28;;;;;;;27.50;18.08;;;1.10;99.90;;;;;;5040072;28;20045;-72
2021/12/12 01:16:04;;;;;;;27.50;16.80;;;1.00;99.90;;;;;;5039451;28;20625;-73
2021/12/12 01:18:38;;;;;;;23.70;17.67;;;1.00;99.90;;;;;;5040136;28;20408;-73
2021/12/12 01:21:21;;;;;;;30.88;19.13;;;1.00;99.90;;;;;;5038071;28;20126;-73
2021/12/12 01:23:56;;;;;;;26.83;17.85;;;1.00;99.90;;;;;;5038636;28;20091;-74
2021/12/12 01:26:27;;;;;;;36.95;21.65;;;1.00;99.90;;;;;;5038587;28;20045;-73
2021/12/12 01:28:55;;;;;;;31.08;19.38;;;0.90;99.90;;;;;;5038090;28;20287;-72
2021/12/12 01:31:29;;;;;;;27.63;19.40;;;1.00;99.90;;;;;;5038592;28;20160;-73
2021/12/12 01:34:09;;;;;;;30.42;20.40;;;0.90;99.90;;;;;;5037615;28;20110;-73
2021/12/12 01:37:06;;;;;;;32.78;20.88;;;0.90;99.90;;;;;;5036702;28;20076;-72
2021/12/12 01:39:40;;;;;;;33.55;20.95;;;0.90;99.90;;;;;;5037941;28;20057;-72
2021/12/12 01:42:16;;;;;;;29.42;19.77;;;0.90;99.90;;;;;;5053184;28;20540;-73
2021/12/12 01:45:01;;;;;;;33.38;20.30;;;0.80;99.90;;;;;;5038115;28;20300;-73
2021/12/12 01:47:34;;;;;;;32.25;21.23;;;0.80;99.90;;;;;;5038045;28;20056;-73
2021/12/12 01:50:07;;;;;;;31.08;20.45;;;0.80;99.90;;;;;;5037978;28;20041;-73
2021/12/12 01:52:36;;;;;;;29.75;19.85;;;0.80;99.90;;;;;;5037360;28;20052;-72
2021/12/12 01:55:23;;;;;;;30.45;19.73;;;0.80;99.90;;;;;;5037648;28;20045;-72
2021/12/12 01:57:53;;;;;;;31.98;20.20;;;0.80;99.90;;;;;;5037700;28;20045;-73
2021/12/12 02:00:30;;;;;;;32.60;20.60;;;0.80;99.90;;;;;;5037666;28;20094;-72
2021/12/12 02:02:59;;;;;;;25.75;16.13;;;0.80;99.90;;;;;;5037464;28;20512;-72
2021/12/12 02:05:28;;;;;;;26.23;18.52;;;0.80;99.90;;;;;;5037616;28;20063;-73
2021/12/12 02:08:04;;;;;;;31.73;18.63;;;0.80;99.90;;;;;;5037161;28;20801;-73
2021/12/12 02:10:37;;;;;;;27.58;18.00;;;0.80;99.90;;;;;;5037141;28;20508;-73
2021/12/12 02:13:12;;;;;;;31.52;20.58;;;0.80;99.90;;;;;;5037656;28;20738;-73
2021/12/12 02:15:42;;;;;;;31.30;21.38;;;0.80;99.90;;;;;;5037717;28;20087;-72
2021/12/12 02:18:13;;;;;;;29.33;19.85;;;0.80;99.90;;;;;;5043610;28;20072;-73
2021/12/12 02:21:05;;;;;;;29.65;20.17;;;0.80;99.90;;;;;;5017025;28;20111;-72
2021/12/12 02:23:53;;;;;;;29.40;20.67;;;0.80;99.90;;;;;;5017476;28;20129;-72
2021/12/12 02:37:31;;;;;;;28.10;18.58;;;0.90;99.90;;;;;;5018333;28;20103;-72
2021/12/12 02:40:00;;;;;;;26.55;17.15;;;0.80;99.90;;;;;;5058132;28;20048;-73
2021/12/12 02:42:27;;;;;;;29.02;18.33;;;0.90;99.90;;;;;;5057462;28;20067;-72
2021/12/12 02:44:58;;;;;;;25.77;17.00;;;0.90;99.90;;;;;;5055742;28;20427;-72
2021/12/12 02:47:33;;;;;;;28.73;17.95;;;0.90;99.90;;;;;;5056702;28;20094;-72
2021/12/12 02:50:23;;;;;;;25.25;16.95;;;0.90;99.90;;;;;;5056513;28;20048;-72
2021/12/12 02:52:54;;;;;;;29.05;19.95;;;0.90;99.90;;;;;;5056573;28;20310;-72
2021/12/12 02:55:25;;;;;;;27.38;16.88;;;0.90;99.90;;;;;;5056760;28;20053;-73
2021/12/12 02:57:55;;;;;;;31.80;19.67;;;0.90;99.90;;;;;;5056722;28;20040;-72
2021/12/12 03:00:25;;;;;;;29.70;18.98;;;0.90;99.90;;;;;;5044092;28;20051;-72
2021/12/12 03:02:58;;;;;;;29.63;19.65;;;0.90;99.90;;;;;;5036677;28;20060;-72
2021/12/12 03:05:29;;;;;;;30.45;18.80;;;0.90;99.90;;;;;;5035698;28;20451;-72
2021/12/12 03:07:56;;;;;;;27.92;17.83;;;0.90;99.90;;;;;;5037083;28;20045;-72
2021/12/12 03:10:28;;;;;;;26.80;17.17;;;0.80;99.90;;;;;;5034796;28;20045;-72
2021/12/12 03:12:56;;;;;;;30.00;18.75;;;0.80;99.90;;;;;;5036703;28;20041;-72
2021/12/12 03:15:28;;;;;;;26.00;17.45;;;0.90;99.90;;;;;;5035792;28;20500;-73
2021/12/12 03:18:02;;;;;;;25.90;17.15;;;0.80;99.90;;;;;;5047751;28;20099;-72
2021/12/12 03:20:34;;;;;;;25.17;16.00;;;0.80;99.90;;;;;;5035815;28;20045;-73
2021/12/12 03:23:21;;;;;;;22.40;15.30;;;0.80;99.90;;;;;;5036131;28;20045;-72
2021/12/12 03:25:55;;;;;;;23.38;15.77;;;0.80;99.90;;;;;;5034667;28;20409;-72
2021/12/12 03:28:27;;;;;;;24.08;14.98;;;0.80;99.90;;;;;;5036043;28;20260;-73
2021/12/12 03:30:59;;;;;;;21.02;13.65;;;0.80;99.90;;;;;;5036666;28;20052;-72
2021/12/12 03:33:29;;;;;;;21.58;14.60;;;0.80;99.90;;;;;;5051512;28;20037;-72
2021/12/12 03:35:59;;;;;;;22.52;15.50;;;0.80;99.90;;;;;;5036560;28;20250;-72
2021/12/12 03:38:29;;;;;;;22.98;15.77;;;0.80;99.90;;;;;;5051077;28;20049;-72
2021/12/12 03:40:59;;;;;;;24.25;15.77;;;0.80;99.90;;;;;;5035829;28;20052;-72
2021/12/12 03:43:26;;;;;;;20.88;14.13;;;0.80;99.90;;;;;;5034734;28;20527;-72
2021/12/12 03:45:53;;;;;;;23.70;15.15;;;0.80;99.90;;;;;;5036595;28;20073;-71
2021/12/12 03:48:29;;;;;;;27.15;17.88;;;0.80;99.90;;;;;;5040117;28;20550;-72
2021/12/12 03:51:00;;;;;;;23.13;14.57;;;0.80;99.90;;;;;;5040098;28;20123;-72
2021/12/12 03:53:30;;;;;;;24.52;15.57;;;0.80;99.90;;;;;;5040404;28;20045;-72
2021/12/12 03:55:57;;;;;;;22.70;14.85;;;0.80;99.90;;;;;;5039733;28;20943;-72
2021/12/12 03:58:24;;;;;;;26.38;17.23;;;0.80;99.90;;;;;;5039696;28;20107;-72
2021/12/12 04:01:00;;;;;;;22.88;15.77;;;0.80;99.90;;;;;;5034967;28;20041;-72
2021/12/12 04:03:27;;;;;;;25.45;16.73;;;0.80;99.90;;;;;;5020015;28;20040;-72
2021/12/12 04:05:58;;;;;;;30.08;19.85;;;0.80;99.90;;;;;;5019927;28;20041;-72
2021/12/12 04:08:30;;;;;;;24.13;16.35;;;0.80;99.90;;;;;;5020291;28;20488;-72
2021/12/12 04:10:58;;;;;;;24.48;17.35;;;0.70;99.90;;;;;;5019649;28;20057;-72
2021/12/12 04:13:25;;;;;;;30.08;19.52;;;0.70;99.90;;;;;;5019465;28;20483;-72
2021/12/12 04:15:53;;;;;;;32.13;19.58;;;0.70;99.90;;;;;;5017870;28;20653;-72
2021/12/12 04:18:26;;;;;;;35.97;23.35;;;0.70;99.90;;;;;;5049974;28;20463;-72
2021/12/12 04:20:54;;;;;;;34.92;19.55;;;0.70;99.90;;;;;;5039564;28;20037;-72
2021/12/12 04:23:24;;;;;;;34.72;22.73;;;0.60;99.90;;;;;;5039445;28;20032;-72
2021/12/12 04:25:51;;;;;;;30.40;19.50;;;0.60;99.90;;;;;;5039791;28;20036;-72
2021/12/12 04:28:18;;;;;;;33.05;21.30;;;0.60;99.90;;;;;;5039226;28;20052;-72
2021/12/12 04:30:45;;;;;;;38.53;23.98;;;0.50;99.90;;;;;;5039521;28;20110;-72
2021/12/12 04:33:12;;;;;;;35.90;22.65;;;0.50;99.90;;;;;;5039238;28;20052;-72
2021/12/12 04:35:39;;;;;;;39.13;24.88;;;0.50;99.90;;;;;;5038841;28;20048;-72
2021/12/12 04:38:06;;;;;;;40.17;24.65;;;0.50;99.90;;;;;;5039657;28;20387;-72
2021/12/12 04:40:34;;;;;;;42.80;24.92;;;0.40;99.90;;;;;;5038867;28;20064;-71
2021/12/12 04:43:02;;;;;;;35.75;22.95;;;0.40;99.90;;;;;;5039239;28;20049;-72
2021/12/12 04:46:04;;;;;;;36.75;22.23;;;0.40;99.90;;;;;;5039032;28;20041;-72
2021/12/12 04:51:39;;;;;;;34.38;21.27;;;0.30;99.90;;;;;;5038429;28;20049;-72
2021/12/12 04:54:25;;;;;;;40.70;22.85;;;0.30;99.90;;;;;;5039236;28;20704;-72
2021/12/12 04:57:00;;;;;;;41.60;24.23;;;0.30;99.90;;;;;;5038873;28;20098;-72
2021/12/12 04:59:42;;;;;;;43.20;25.30;;;0.20;99.90;;;;;;5037796;28;20407;-72
2021/12/12 05:02:26;;;;;;;45.97;25.83;;;0.20;99.90;;;;;;5039123;28;20043;-72
2021/12/12 05:05:01;;;;;;;41.75;24.15;;;0.10;99.90;;;;;;5039078;28;20402;-72
2021/12/12 05:07:37;;;;;;;44.50;23.92;;;0.10;99.90;;;;;;5038692;28;20527;-72
2021/12/12 05:10:06;;;;;;;38.65;24.33;;;0.10;99.90;;;;;;5037656;28;20456;-72
2021/12/12 05:12:43;;;;;;;39.40;22.23;;;0.00;99.90;;;;;;5038926;28;20268;-71
2021/12/12 05:15:44;;;;;;;35.97;21.02;;;0.00;99.90;;;;;;5037260;28;20056;-72
2021/12/12 05:18:22;;;;;;;33.17;19.48;;;-0.10;99.90;;;;;;5045149;28;20099;-72
2021/12/12 05:20:56;;;;;;;30.67;19.08;;;-0.10;99.90;;;;;;5018125;28;20046;-72
2021/12/12 05:23:26;;;;;;;32.05;19.35;;;-0.20;99.90;;;;;;5018777;28;20045;-72
2021/12/12 05:25:59;;;;;;;33.63;18.50;;;-0.20;99.90;;;;;;5018504;28;20045;-72
2021/12/12 05:28:33;;;;;;;31.77;19.55;;;-0.20;99.90;;;;;;5018007;28;20049;-72
2021/12/12 05:31:04;;;;;;;28.92;18.25;;;-0.20;99.90;;;;;;5017918;28;20057;-72
2021/12/12 05:33:31;;;;;;;30.48;19.45;;;-0.20;99.90;;;;;;5017323;28;20049;-71
2021/12/12 05:35:59;;;;;;;28.95;18.13;;;-0.20;99.90;;;;;;5017887;28;20099;-71
2021/12/12 05:38:27;;;;;;;35.92;20.33;;;-0.20;99.90;;;;;;5018621;28;20515;-71
2021/12/12 05:40:54;;;;;;;32.42;20.92;;;-0.20;99.90;;;;;;5017767;28;20387;-71
2021/12/12 05:43:22;;;;;;;33.53;19.80;;;-0.20;99.90;;;;;;5018538;28;20041;-71
2021/12/12 05:45:51;;;;;;;32.55;18.27;;;-0.20;99.90;;;;;;5017976;28;20052;-71
2021/12/12 05:48:20;;;;;;;39.13;22.83;;;-0.30;99.90;;;;;;5017550;28;20038;-71
2021/12/12 05:50:49;;;;;;;37.05;21.23;;;-0.30;99.90;;;;;;5017780;28;20049;-71
2021/12/12 05:53:16;;;;;;;38.95;21.20;;;-0.30;99.90;;;;;;5016267;28;20136;-71
2021/12/12 05:55:44;;;;;;;35.72;20.95;;;-0.30;99.90;;;;;;5018207;28;20512;-71
2021/12/12 05:58:17;;;;;;;36.10;21.75;;;-0.30;99.90;;;;;;5017809;28;20061;-70
2021/12/12 06:00:45;;;;;;;38.58;22.30;;;-0.30;99.90;;;;;;5032383;28;20049;-71
2021/12/12 06:03:15;;;;;;;38.08;21.60;;;-0.30;99.90;;;;;;5036039;28;20616;-71
2021/12/12 06:05:43;;;;;;;34.90;20.80;;;-0.30;99.90;;;;;;5038029;28;20033;-71
2021/12/12 06:08:11;;;;;;;35.75;21.10;;;-0.40;99.90;;;;;;5037985;28;20115;-71
2021/12/12 06:10:40;;;;;;;31.98;18.80;;;-0.40;99.90;;;;;;5035837;28;20533;-70
2021/12/12 06:13:11;;;;;;;29.55;18.20;;;-0.30;99.90;;;;;;5037167;28;20079;-70
2021/12/12 06:15:39;;;;;;;35.78;20.63;;;-0.30;99.90;;;;;;5037440;28;20502;-70
2021/12/12 06:18:07;;;;;;;36.60;18.88;;;-0.30;99.90;;;;;;5048528;28;20103;-70
2021/12/12 06:20:34;;;;;;;29.80;18.00;;;-0.30;99.90;;;;;;5036892;28;20130;-71
2021/12/12 06:23:01;;;;;;;26.65;17.30;;;-0.40;99.90;;;;;;5036515;28;20045;-70
2021/12/12 06:25:28;;;;;;;25.33;16.38;;;-0.40;99.90;;;;;;5037199;28;20052;-70
2021/12/12 06:27:55;;;;;;;27.00;17.42;;;-0.40;99.90;;;;;;5036807;28;20045;-70
2021/12/12 06:30:24;;;;;;;28.48;15.65;;;-0.40;99.90;;;;;;5036899;28;20524;-70
2021/12/12 06:32:52;;;;;;;28.13;16.52;;;-0.40;99.90;;;;;;5036813;28;20056;-70
2021/12/12 06:35:20;;;;;;;27.73;16.40;;;-0.50;99.90;;;;;;5035005;28;20060;-70
2021/12/12 06:37:48;;;;;;;29.55;16.00;;;-0.50;99.90;;;;;;5036941;28;20045;-70
2021/12/12 06:40:19;;;;;;;28.27;16.95;;;-0.50;99.90;;;;;;5034828;28;20053;-69
2021/12/12 06:42:49;;;;;;;26.77;16.50;;;-0.60;99.90;;;;;;5037013;28;20523;-69
2021/12/12 06:45:17;;;;;;;27.67;16.80;;;-0.60;99.90;;;;;;5036751;28;20120;-69
2021/12/12 06:47:45;;;;;;;28.00;16.48;;;-0.70;99.90;;;;;;5037077;28;20041;-69
2021/12/12 06:50:12;;;;;;;25.15;14.80;;;-0.80;99.90;;;;;;5036505;28;20080;-69
2021/12/12 06:52:40;;;;;;;26.67;16.08;;;-0.80;99.90;;;;;;5037298;28;20138;-69
2021/12/12 06:55:10;;;;;;;22.92;13.85;;;-0.90;99.90;;;;;;5036513;28;20049;-69
2021/12/12 06:57:37;;;;;;;22.98;13.88;;;-0.90;99.90;;;;;;5037104;28;20048;-69
2021/12/12 07:00:11;;;;;;;25.48;14.88;;;-1.00;99.90;;;;;;5036300;28;20048;-69
2021/12/12 07:02:41;;;;;;;22.15;14.30;;;-1.00;99.90;;;;;;5036731;28;20048;-69
2021/12/12 07:05:08;;;;;;;26.00;15.18;;;-1.00;99.90;;;;;;5036715;28;20254;-69
2021/12/12 07:07:35;;;;;;;20.33;12.93;;;-1.00;99.90;;;;;;5036619;28;20111;-69
2021/12/12 07:10:05;;;;;;;19.15;11.80;;;-1.00;99.90;;;;;;5036519;28;20122;-69
2021/12/12 07:12:32;;;;;;;23.13;14.25;;;-1.00;99.90;;;;;;5036170;28;20098;-69
2021/12/12 07:15:00;;;;;;;23.92;13.60;;;-1.00;99.90;;;;;;5036487;28;20487;-68
2021/12/12 07:17:27;;;;;;;24.40;13.15;;;-1.00;99.90;;;;;;5045768;28;20040;-69
2021/12/12 07:19:54;;;;;;;19.77;12.02;;;-1.00;99.90;;;;;;5037632;28;20066;-69
2021/12/12 07:22:23;;;;;;;20.83;12.10;;;-1.10;99.90;;;;;;5036335;28;20130;-70
2021/12/12 07:24:51;;;;;;;16.13;10.13;;;-1.10;99.90;;;;;;5036146;28;20603;-69
2021/12/12 07:27:18;;;;;;;14.60;9.43;;;-1.20;99.90;;;;;;5036483;28;20524;-59
2021/12/12 07:29:45;;;;;;;15.35;9.10;;;-1.10;99.90;;;;;;5051014;28;20045;-60
2021/12/12 07:32:14;;;;;;;11.65;7.60;;;-1.00;99.90;;;;;;5036377;28;20041;-59
2021/12/12 07:34:41;;;;;;;10.00;6.90;;;-0.90;99.90;;;;;;5035932;28;20099;-59
2021/12/12 07:37:09;;;;;;;9.45;6.22;;;-0.70;99.90;;;;;;5036538;28;20092;-60
2021/12/12 07:39:39;;;;;;;10.25;6.78;;;-0.50;99.90;;;;;;5035460;28;20578;-60
2021/12/12 07:42:07;;;;;;;10.75;7.03;;;-0.30;99.90;;;;;;5035968;28;20049;-59
2021/12/12 07:44:36;;;;;;;10.57;6.75;;;-0.10;99.90;;;;;;5036164;28;20106;-60
2021/12/12 07:47:05;;;;;;;10.32;7.07;;;0.10;99.90;;;;;;5035827;28;20049;-60
2021/12/12 07:49:37;;;;;;;11.85;7.00;;;0.40;99.90;;;;;;5035808;28;20242;-59
2021/12/12 07:52:11;;;;;;;9.85;6.55;;;0.60;99.90;;;;;;5035095;28;20095;-59
2021/12/12 07:54:38;;;;;;;9.13;6.28;;;0.80;99.90;;;;;;5034617;28;20103;-59
2021/12/12 07:57:06;;;;;;;10.95;7.00;;;1.00;99.90;;;;;;5035955;28;20072;-59
2021/12/12 07:59:37;;;;;;;9.93;7.30;;;1.20;99.90;;;;;;5035708;28;20033;-59
2021/12/12 08:02:06;;;;;;;8.60;6.40;;;1.30;99.90;;;;;;5034418;28;20052;-59
2021/12/12 08:04:33;;;;;;;9.55;6.35;;;1.40;99.90;;;;;;5035803;28;20116;-60
2021/12/12 08:07:01;;;;;;;10.50;6.75;;;1.50;99.90;;;;;;5035968;28;20057;-59
2021/12/12 08:09:29;;;;;;;7.85;5.80;;;1.50;99.90;;;;;;5035065;28;20106;-58
2021/12/12 08:11:57;;;;;;;10.68;7.15;;;1.60;99.90;;;;;;5035592;28;20048;-59
2021/12/12 08:14:27;;;;;;;9.45;6.03;;;1.60;99.90;;;;;;5035856;28;20347;-58
2021/12/12 08:16:55;;;;;;;8.23;6.13;;;1.70;99.90;;;;;;5040753;28;20037;-58
2021/12/12 08:19:24;;;;;;;9.52;6.95;;;1.70;99.90;;;;;;5041129;28;20040;-59
2021/12/12 08:21:54;;;;;;;10.80;6.50;;;1.70;99.90;;;;;;5035925;28;20053;-58
2021/12/12 08:24:22;;;;;;;9.73;6.55;;;1.80;99.90;;;;;;5036187;28;20045;-58
2021/12/12 08:26:49;;;;;;;11.15;5.93;;;1.80;99.90;;;;;;5035262;28;20140;-59
2021/12/12 08:29:16;;;;;;;8.30;5.70;;;1.80;99.90;;;;;;5035489;28;20055;-56
2021/12/12 08:31:46;;;;;;;8.40;5.72;;;1.80;99.90;;;;;;5035014;28;20470;-59
2021/12/12 08:34:14;;;;;;;8.68;6.05;;;1.80;99.90;;;;;;5038315;28;20179;-59
2021/12/12 08:36:46;;;;;;;8.68;6.20;;;1.90;99.90;;;;;;5039078;28;20467;-60
2021/12/12 08:39:14;;;;;;;8.38;5.90;;;1.90;99.90;;;;;;5039290;28;20048;-59
2021/12/12 08:41:44;;;;;;;8.75;5.72;;;2.00;99.90;;;;;;5054313;28;20075;-60
2021/12/12 08:44:11;;;;;;;8.75;5.90;;;2.10;99.90;;;;;;5038931;28;20095;-61
2021/12/12 08:46:41;;;;;;;8.20;6.18;;;2.20;99.90;;;;;;5038814;28;20503;-60
2021/12/12 08:49:11;;;;;;;9.02;6.05;;;2.20;99.90;;;;;;5038819;28;20053;-59
2021/12/12 08:51:43;;;;;;;8.52;6.30;;;2.30;99.90;;;;;;5038968;28;20395;-60
2021/12/12 08:54:14;;;;;;;9.57;5.90;;;2.40;99.90;;;;;;5038816;28;20052;-60
2021/12/12 08:56:46;;;;;;;7.95;5.47;;;2.50;99.90;;;;;;5038892;28;20047;-60
2021/12/12 08:59:20;;;;;;;8.82;6.13;;;2.50;99.90;;;;;;5038343;28;20049;-60
2021/12/12 09:01:50;;;;;;;8.35;6.03;;;2.60;99.90;;;;;;5038921;28;20037;-60
2021/12/12 09:04:18;;;;;;;12.13;8.05;;;2.60;99.90;;;;;;5038331;28;20041;-60
2021/12/12 09:06:58;;;;;;;8.60;6.00;;;2.70;99.90;;;;;;5038495;28;20037;-60
2021/12/12 09:09:29;;;;;;;8.98;6.13;;;2.80;99.90;;;;;;5038295;28;20048;-60
2021/12/12 09:12:12;;;;;;;10.75;6.80;;;2.90;99.90;;;;;;5038479;28;20567;-60
2021/12/12 09:14:47;;;;;;;8.13;5.57;;;3.00;99.90;;;;;;5039240;28;20462;-59
2021/12/12 09:17:32;;;;;;;12.27;6.05;;;3.20;99.90;;;;;;5045801;28;20564;-60
2021/12/12 09:20:05;;;;;;;;;;;3.40;99.90;;;;;;5039840;28;20538;-60
2021/12/12 09:22:34;;;;;;;8.60;6.00;;;3.60;99.90;;;;;;5038963;28;20356;-59
2021/12/12 09:25:15;;;;;;;10.25;6.38;;;3.80;99.90;;;;;;5039735;28;20049;-64
2021/12/12 09:27:46;;;;;;;9.38;6.05;;;3.90;99.90;;;;;;5039136;28;20048;-59
2021/12/12 09:30:23;;;;;;;8.25;6.25;;;4.20;99.90;;;;;;5039169;28;20048;-59
2021/12/12 09:32:59;;;;;;;10.50;5.63;;;4.40;99.90;;;;;;5039399;28;20041;-59
2021/12/12 09:35:31;;;;;;;8.98;5.93;;;4.60;99.90;;;;;;5036422;28;20080;-60
2021/12/12 09:38:03;;;;;;;10.43;6.80;;;4.70;99.90;;;;;;5038029;28;20068;-57
2021/12/12 09:40:39;;;;;;;9.27;5.80;;;4.80;99.90;;;;;;5037303;28;20048;-56
2021/12/12 09:43:25;;;;;;;9.80;6.50;;;4.90;99.90;;;;;;5038054;28;20045;-63
2021/12/12 09:45:57;;;;;;;10.00;6.25;;;5.10;99.90;;;;;;5020943;28;20519;-56
2021/12/12 09:52:53;;;;;;;9.57;5.88;;;5.30;99.90;;;;;;5036950;28;20102;-57
2021/12/12 09:55:53;;;;;;;8.18;5.60;;;5.40;99.90;;;;;;5037422;28;20130;-58
2021/12/12 09:58:40;;;;;;;7.00;4.32;;;5.40;99.90;;;;;;5037472;28;20970;-56
2021/12/12 10:01:18;;;;;;;8.30;5.30;;;5.60;99.90;;;;;;5035242;28;20512;-58
2021/12/12 10:03:54;;;;;;;5.85;4.15;;;5.70;99.90;;;;;;5037639;28;20137;-58
2021/12/12 10:07:00;;;;;;;7.45;4.80;;;5.90;99.90;;;;;;5037492;28;20527;-60
2021/12/12 10:09:38;;;;;;;7.97;4.95;;;6.10;99.90;;;;;;5036042;28;20341;-58
2021/12/12 10:12:19;;;;;;;7.22;5.00;;;6.20;99.90;;;;;;5037236;28;20122;-58
2021/12/12 10:14:57;;;;;;;6.95;4.70;;;6.30;99.90;;;;;;5037341;28;20095;-60
2021/12/12 10:17:31;;;;;;;7.75;4.85;;;6.50;99.90;;;;;;5034415;28;20095;-60
2021/12/12 10:20:10;;;;;;;8.65;5.20;;;6.50;99.90;;;;;;5016661;28;20104;-60
2021/12/12 10:22:59;;;;;;;8.75;5.13;;;6.60;99.90;;;;;;5016756;28;20056;-58
2021/12/12 10:25:45;;;;;;;7.00;4.20;;;6.60;99.90;;;;;;5034718;28;20397;-60
2021/12/12 10:28:25;;;;;;;5.68;4.05;;;6.80;99.90;;;;;;5035945;28;20106;-60
2021/12/12 10:31:18;;;;;;;6.60;4.38;;;6.80;99.90;;;;;;5035495;28;20048;-60
2021/12/12 10:33:56;;;;;;;6.72;3.78;;;6.80;99.90;;;;;;5036399;28;20114;-61
2021/12/12 10:36:39;;;;;;;6.47;3.72;;;6.60;99.90;;;;;;5035930;28;20122;-61
2021/12/12 10:39:25;;;;;;;6.40;4.40;;;6.40;99.90;;;;;;5036349;28;20226;-60
2021/12/12 10:42:07;;;;;;;6.32;4.05;;;6.20;99.90;;;;;;5036063;28;20601;-60
2021/12/12 10:44:48;;;;;;;5.03;3.50;;;6.00;99.90;;;;;;5035892;28;20037;-60
2021/12/12 10:47:20;;;;;;;4.13;3.60;;;5.80;99.90;;;;;;5036322;28;20131;-60
2021/12/12 10:50:12;;;;;;;4.75;3.42;;;5.70;99.90;;;;;;5035716;28;20040;-60
2021/12/12 10:53:00;;;;;;;5.97;3.28;;;5.60;99.90;;;;;;5035726;28;20103;-60
2021/12/12 10:55:43;;;;;;;4.05;3.17;;;5.40;99.90;;;;;;5035990;28;20063;-60
2021/12/12 10:58:35;;;;;;;5.95;3.17;;;5.30;99.90;;;;;;5035482;28;20519;-60
2021/12/12 11:01:27;;;;;;;4.22;3.03;;;5.10;99.90;;;;;;5020812;28;20243;-60
2021/12/12 11:04:11;;;;;;;5.78;3.85;;;5.00;99.90;;;;;;5035431;28;20047;-60
2021/12/12 11:06:49;;;;;;;5.00;3.42;;;4.90;99.90;;;;;;5036134;28;20041;-60
2021/12/12 11:09:23;;;;;;;5.47;3.00;;;4.80;99.90;;;;;;5035251;28;20102;-60
2021/12/12 11:11:59;;;;;;;4.78;3.50;;;4.70;99.90;;;;;;5036378;28;20228;-60
2021/12/12 11:14:35;;;;;;;3.97;2.97;;;4.70;99.90;;;;;;5035533;28;20041;-60
2021/12/12 11:17:19;;;;;;;6.03;4.10;;;4.60;99.90;;;;;;5032592;28;20052;-60
2021/12/12 11:20:13;;;;;;;3.97;3.38;;;4.60;99.90;;;;;;5016450;28;20049;-60
2021/12/12 11:22:51;;;;;;;4.03;3.30;;;4.60;99.90;;;;;;5034008;28;20040;-60
2021/12/12 11:25:36;;;;;;;4.90;3.35;;;4.50;99.90;;;;;;5034065;28;20029;-59
2021/12/12 11:28:27;;;;;;;4.43;3.28;;;4.50;99.90;;;;;;5022757;28;20050;-58
2021/12/12 11:31:04;;;;;;;7.35;3.65;;;4.50;99.90;;;;;;5034556;28;20045;-58
2021/12/12 11:33:34;;;;;;;4.25;3.30;;;4.60;99.90;;;;;;5036842;28;20120;-59
2021/12/12 11:36:03;;;;;;;6.03;3.85;;;4.60;99.90;;;;;;5036243;28;20446;-59
2021/12/12 11:38:50;;;;;;;5.40;3.67;;;4.80;99.90;;;;;;5036184;28;20041;-59
2021/12/12 11:41:58;;;;;;;5.55;3.47;;;4.90;99.90;;;;;;5036117;28;20075;-58
2021/12/12 11:44:42;;;;;;;5.13;3.33;;;5.10;99.90;;;;;;5015680;28;20065;-63
2021/12/12 11:47:23;;;;;;;4.38;3.10;;;5.10;99.90;;;;;;5016278;28;20061;-59
2021/12/12 11:49:58;;;;;;;5.43;3.53;;;5.10;99.90;;;;;;5035860;28;20420;-59
2021/12/12 11:52:51;;;;;;;7.75;3.55;;;5.10;99.90;;;;;;5037380;28;20041;-62
2021/12/12 11:55:29;;;;;;;5.30;3.42;;;5.20;99.90;;;;;;5037138;28;20657;-62
2021/12/12 11:58:29;;;;;;;5.07;3.53;;;5.20;99.90;;;;;;5037138;28;20071;-62
2021/12/12 12:01:17;;;;;;;5.40;3.67;;;5.30;99.90;;;;;;5026962;28;20088;-61
2021/12/12 12:04:02;;;;;;;5.85;2.78;;;5.40;99.90;;;;;;5035760;28;20095;-62
2021/12/12 12:06:36;;;;;;;3.63;3.08;;;5.50;99.90;;;;;;5035985;28;20033;-62
2021/12/12 12:09:25;;;;;;;3.63;2.72;;;5.50;99.90;;;;;;5038006;28;20049;-62
2021/12/12 12:12:04;;;;;;;3.47;2.25;;;5.60;99.90;;;;;;5039736;28;20044;-62
2021/12/12 12:14:44;;;;;;;4.15;2.92;;;5.60;99.90;;;;;;5039335;28;20737;-62
2021/12/12 12:17:29;;;;;;;3.17;2.45;;;5.60;99.90;;;;;;5042807;28;20735;-62
2021/12/12 12:20:01;;;;;;;3.95;2.67;;;5.60;99.90;;;;;;5039238;28;20567;-62
2021/12/12 12:22:38;;;;;;;2.35;2.15;;;5.70;99.90;;;;;;5039362;28;20045;-62
2021/12/12 12:25:24;;;;;;;3.25;2.30;;;5.80;99.90;;;;;;5039940;28;20045;-62
2021/12/12 12:28:06;;;;;;;3.00;2.25;;;5.90;99.90;;;;;;5039013;28;20056;-63
2021/12/12 12:30:54;;;;;;;4.68;2.53;;;6.10;99.90;;;;;;5039351;28;20048;-59
2021/12/12 12:33:59;;;;;;;2.42;1.85;;;6.30;99.90;;;;;;5036801;28;20219;-60
2021/12/12 12:37:10;;;;;;;4.38;2.47;;;6.40;99.90;;;;;;5038144;28;20121;-60
2021/12/12 12:39:55;;;;;;;3.55;2.53;;;6.40;99.90;;;;;;5038126;28;20200;-58
2021/12/12 12:42:59;;;;;;;3.97;2.85;;;6.40;99.90;;;;;;5039140;28;20072;-60
2021/12/12 12:46:04;;;;;;;3.55;2.63;;;6.40;99.90;;;;;;5038518;28;20052;-61
2021/12/12 12:48:45;;;;;;;3.80;2.65;;;6.40;99.90;;;;;;5038793;28;20451;-61
2021/12/12 12:51:38;;;;;;;4.25;3.17;;;6.30;99.90;;;;;;5039139;28;20458;-61
2021/12/12 12:54:35;;;;;;;6.63;2.92;;;6.10;99.90;;;;;;5038368;28;20102;-60
2021/12/12 12:57:25;;;;;;;3.92;3.08;;;5.90;99.90;;;;;;5038714;28;20049;-60
2021/12/12 13:00:13;;;;;;;5.30;3.47;;;5.60;99.90;;;;;;5037139;28;20075;-59
2021/12/12 13:03:01;;;;;;;4.00;3.40;;;5.30;99.90;;;;;;5038094;28;20051;-58
2021/12/12 13:05:52;;;;;;;4.50;3.22;;;5.00;99.90;;;;;;5038967;28;20116;-59
2021/12/12 13:08:50;;;;;;;4.90;3.70;;;4.90;99.90;;;;;;5038252;28;20045;-59
2021/12/12 13:11:37;;;;;;;4.53;3.70;;;4.90;99.90;;;;;;5038930;28;20105;-61
2021/12/12 13:14:23;;;;;;;8.65;4.70;;;4.80;99.90;;;;;;5039339;28;20111;-60
2021/12/12 13:17:15;;;;;;;6.07;4.68;;;4.70;99.90;;;;;;5040525;28;20519;-60
2021/12/12 13:20:35;;;;;;;6.78;4.35;;;4.50;99.90;;;;;;5036980;28;20057;-60
2021/12/12 13:23:02;;;;;;;;;;;4.30;99.90;;;;;;5015580;28;20053;-60
2021/12/12 13:25:43;;;;;;;7.05;4.70;;;4.20;99.90;;;;;;5034233;28;19956;-61
2021/12/12 13:28:20;;;;;;;5.22;3.90;;;4.00;99.90;;;;;;5038703;28;20051;-60
2021/12/12 13:30:59;;;;;;;;;;;3.90;99.90;;;;;;5039263;28;20099;-60
2021/12/12 13:33:45;;;;;;;6.38;4.70;;;3.80;99.90;;;;;;5038806;28;20113;-61
2021/12/12 13:36:26;;;;;;;7.55;4.85;;;3.80;99.90;;;;;;5038626;28;20088;-61
2021/12/12 13:39:05;;;;;;;6.88;4.57;;;3.80;99.90;;;;;;5038530;28;20447;-61
2021/12/12 13:41:55;;;;;;;7.80;4.97;;;3.70;99.90;;;;;;5038291;28;20045;-61
2021/12/12 13:44:46;;;;;;;8.88;5.68;;;3.70;99.90;;;;;;5038980;28;20044;-60